createdAt,value
2017-12-20T00:00:25.042Z,23.12
2017-12-20T00:01:31.981Z,27.52
2017-12-20T00:02:38.545Z,24.87
2017-12-20T00:03:46.049Z,25.48
2017-12-20T00:04:52.733Z,24.55
2017-12-20T00:06:00.033Z,23.62
2017-12-20T00:07:07.144Z,28.60
2017-12-20T00:08:14.085Z,25.02
2017-12-20T00:09:22.215Z,27.55
2017-12-20T00:10:29.657Z,26.00
2017-12-20T00:11:36.856Z,29.42
2017-12-20T00:12:44.057Z,24.98
2017-12-20T00:13:54.009Z,27.17
2017-12-20T00:15:00.865Z,24.77
2017-12-20T00:16:07.890Z,25.12
2017-12-20T00:17:15.832Z,22.75
2017-12-20T00:18:26.785Z,23.90
2017-12-20T00:19:34.240Z,21.67
2017-12-20T00:20:44.655Z,24.73
2017-12-20T00:21:54.077Z,22.23
2017-12-20T00:23:01.030Z,20.55
2017-12-20T00:24:07.303Z,22.05
2017-12-20T00:25:13.565Z,21.40
2017-12-20T00:26:19.867Z,27.08
2017-12-20T00:27:25.787Z,21.77
2017-12-20T00:28:32.142Z,23.58
2017-12-20T00:29:38.352Z,23.73
2017-12-20T00:30:44.566Z,20.65
2017-12-20T00:31:50.782Z,22.13
2017-12-20T00:32:56.399Z,22.87
2017-12-20T00:34:02.092Z,22.33
2017-12-20T00:35:07.771Z,23.10
2017-12-20T00:36:13.475Z,18.50
2017-12-20T00:37:19.093Z,21.77
2017-12-20T00:38:24.787Z,21.85
2017-12-20T00:39:30.458Z,20.73
2017-12-20T00:40:36.793Z,23.90
2017-12-20T00:41:43.019Z,24.42
2017-12-20T00:42:49.249Z,20.67
2017-12-20T00:43:55.446Z,21.17
2017-12-20T00:45:01.438Z,19.42
2017-12-20T00:46:07.715Z,18.65
2017-12-20T00:47:13.921Z,19.05
2017-12-20T00:48:20.132Z,20.45
2017-12-20T00:49:34.323Z,19.87
2017-12-20T00:50:40.559Z,21.52
2017-12-20T00:51:46.806Z,21.40
2017-12-20T00:52:53.035Z,21.87
2017-12-20T00:53:59.274Z,21.35
2017-12-20T00:55:05.466Z,20.92
2017-12-20T00:56:11.667Z,19.52
2017-12-20T00:57:18.807Z,23.80
2017-12-20T00:58:24.983Z,20.92
2017-12-20T00:59:31.211Z,22.00
2017-12-20T01:00:37.423Z,19.37
2017-12-20T01:01:46.266Z,21.92
2017-12-20T01:02:52.578Z,29.00
2017-12-20T01:03:58.753Z,20.90
2017-12-20T01:05:05.535Z,17.42
2017-12-20T01:06:11.460Z,21.60
2017-12-20T01:07:17.671Z,19.10
2017-12-20T01:08:23.570Z,20.27
2017-12-20T01:09:29.514Z,20.75
2017-12-20T01:10:37.648Z,18.17
2017-12-20T01:11:43.910Z,19.52
2017-12-20T01:12:50.093Z,20.52
2017-12-20T01:13:56.383Z,17.70
2017-12-20T01:15:02.667Z,20.77
2017-12-20T01:16:08.873Z,22.73
2017-12-20T01:17:15.124Z,18.73
2017-12-20T01:18:21.335Z,22.92
2017-12-20T01:19:27.524Z,16.70
2017-12-20T01:20:33.790Z,18.10
2017-12-20T01:21:42.877Z,22.05
2017-12-20T01:22:49.180Z,21.10
2017-12-20T01:23:55.413Z,16.27
2017-12-20T01:25:01.688Z,18.15
2017-12-20T01:26:07.915Z,17.20
2017-12-20T01:27:14.125Z,16.42
2017-12-20T01:28:20.310Z,16.90
2017-12-20T01:29:26.539Z,17.17
2017-12-20T01:30:32.774Z,17.42
2017-12-20T01:31:39.495Z,17.27
2017-12-20T01:32:45.802Z,17.83
2017-12-20T01:33:52.195Z,15.10
2017-12-20T01:34:58.374Z,19.50
2017-12-20T01:36:04.290Z,15.13
2017-12-20T01:37:10.522Z,17.17
2017-12-20T01:38:16.758Z,17.35
2017-12-20T01:39:22.624Z,14.43
2017-12-20T01:40:28.201Z,19.60
2017-12-20T01:41:33.859Z,17.42
2017-12-20T01:42:39.402Z,19.35
2017-12-20T01:43:45.631Z,17.05
2017-12-20T01:44:51.819Z,20.77
2017-12-20T01:45:58.019Z,16.23
2017-12-20T01:47:04.254Z,16.95
2017-12-20T01:48:10.546Z,16.42
2017-12-20T01:49:16.783Z,17.70
2017-12-20T01:50:22.664Z,21.65
2017-12-20T01:51:28.914Z,19.95
2017-12-20T01:52:35.250Z,17.08
2017-12-20T01:53:41.151Z,16.80
2017-12-20T01:54:47.025Z,16.98
2017-12-20T01:55:52.580Z,19.58
2017-12-20T01:56:58.419Z,18.62
2017-12-20T01:58:04.277Z,18.48
2017-12-20T01:59:10.539Z,18.65
2017-12-20T02:00:16.060Z,17.90
2017-12-20T02:01:21.545Z,17.95
2017-12-20T02:02:26.358Z,17.25
2017-12-20T02:03:37.743Z,20.17
2017-12-20T02:04:44.881Z,17.52
2017-12-20T02:05:51.128Z,17.70
2017-12-20T02:06:57.307Z,15.93
2017-12-20T02:08:03.252Z,21.55
2017-12-20T02:09:09.452Z,17.95
2017-12-20T02:10:15.782Z,20.35
2017-12-20T02:11:22.023Z,18.12
2017-12-20T02:12:28.252Z,25.73
2017-12-20T02:13:34.846Z,20.52
2017-12-20T02:14:41.079Z,22.33
2017-12-20T02:15:47.284Z,22.10
2017-12-20T02:16:53.483Z,25.60
2017-12-20T02:17:59.451Z,18.62
2017-12-20T02:19:04.967Z,24.90
2017-12-20T02:20:10.858Z,20.85
2017-12-20T02:21:16.444Z,21.73
2017-12-20T02:22:22.023Z,21.95
2017-12-20T02:23:27.254Z,20.60
2017-12-20T02:24:32.779Z,24.80
2017-12-20T02:25:38.068Z,23.87
2017-12-20T02:26:43.571Z,23.17
2017-12-20T02:27:48.830Z,23.65
2017-12-20T02:28:59.752Z,20.73
2017-12-20T02:30:05.278Z,26.30
2017-12-20T02:31:10.485Z,20.73
2017-12-20T02:32:16.073Z,23.58
2017-12-20T02:33:29.842Z,26.75
2017-12-20T02:34:35.385Z,28.98
2017-12-20T02:35:40.886Z,22.62
2017-12-20T02:36:46.481Z,24.35
2017-12-20T02:37:51.730Z,24.83
2017-12-20T02:38:56.998Z,26.35
2017-12-20T02:40:02.213Z,21.25
2017-12-20T02:41:09.558Z,25.23
2017-12-20T02:42:15.174Z,28.40
2017-12-20T02:43:22.707Z,28.77
2017-12-20T02:44:28.944Z,24.60
2017-12-20T02:45:34.179Z,31.45
2017-12-20T02:46:39.416Z,30.00
2017-12-20T02:47:44.634Z,33.25
2017-12-20T02:48:49.913Z,29.52
2017-12-20T02:49:55.428Z,31.62
2017-12-20T02:51:00.930Z,30.50
2017-12-20T02:52:06.484Z,29.12
2017-12-20T02:53:13.645Z,32.05
2017-12-20T02:54:19.487Z,31.90
2017-12-20T02:55:25.003Z,41.22
2017-12-20T02:56:30.851Z,28.62
2017-12-20T02:57:36.353Z,30.60
2017-12-20T02:58:41.914Z,30.95
2017-12-20T02:59:47.439Z,34.15
2017-12-20T03:00:53.032Z,32.65
2017-12-20T03:01:58.532Z,30.90
2017-12-20T03:03:04.057Z,30.17
2017-12-20T03:04:09.623Z,36.38
2017-12-20T03:05:14.929Z,30.50
2017-12-20T03:06:20.617Z,31.92
2017-12-20T03:07:26.127Z,29.95
2017-12-20T03:08:31.656Z,34.60
2017-12-20T03:09:39.016Z,32.83
2017-12-20T03:10:44.863Z,29.63
2017-12-20T03:11:50.779Z,29.75
2017-12-20T03:12:56.337Z,34.58
2017-12-20T03:14:01.558Z,34.78
2017-12-20T03:15:07.071Z,30.40
2017-12-20T03:16:12.616Z,29.50
2017-12-20T03:17:18.872Z,26.12
2017-12-20T03:18:28.973Z,35.80
2017-12-20T03:19:35.170Z,32.55
2017-12-20T03:20:41.084Z,33.92
2017-12-20T03:21:47.646Z,33.08
2017-12-20T03:22:53.902Z,37.92
2017-12-20T03:24:00.121Z,33.60
2017-12-20T03:25:06.002Z,35.03
2017-12-20T03:26:11.867Z,31.33
2017-12-20T03:27:18.075Z,33.58
2017-12-20T03:28:24.037Z,34.70
2017-12-20T03:29:30.885Z,38.85
2017-12-20T03:30:39.263Z,37.13
2017-12-20T03:31:46.623Z,36.72
2017-12-20T03:32:53.547Z,35.10
2017-12-20T03:34:01.196Z,36.33
2017-12-20T03:35:08.682Z,32.80
2017-12-20T03:36:15.713Z,33.38
2017-12-20T03:37:23.338Z,35.30
2017-12-20T03:38:29.660Z,36.00
2017-12-20T03:39:36.791Z,31.48
2017-12-20T03:40:43.334Z,34.25
2017-12-20T03:41:50.602Z,31.08
2017-12-20T03:42:58.387Z,34.60
2017-12-20T03:44:05.358Z,34.50
2017-12-20T03:45:12.583Z,32.92
2017-12-20T03:46:19.293Z,35.75
2017-12-20T03:47:26.251Z,33.55
2017-12-20T03:48:32.953Z,37.08
2017-12-20T03:49:40.233Z,32.10
2017-12-20T03:50:46.790Z,32.47
2017-12-20T03:51:53.483Z,31.48
2017-12-20T03:53:00.764Z,32.40
2017-12-20T03:54:08.972Z,35.58
2017-12-20T03:55:15.962Z,30.62
2017-12-20T03:56:22.447Z,31.60
2017-12-20T03:57:28.542Z,26.62
2017-12-20T03:58:34.464Z,30.05
2017-12-20T03:59:41.556Z,28.20
2017-12-20T04:00:48.481Z,28.23
2017-12-20T04:01:55.227Z,32.20
2017-12-20T04:03:02.573Z,29.05
2017-12-20T04:04:08.905Z,28.02
2017-12-20T04:05:16.067Z,32.97
2017-12-20T04:06:23.504Z,26.77
2017-12-20T04:07:29.787Z,29.75
2017-12-20T04:08:36.804Z,35.47
2017-12-20T04:09:44.029Z,30.52
2017-12-20T04:10:51.331Z,32.50
2017-12-20T04:11:58.528Z,33.38
2017-12-20T04:13:05.391Z,34.85
2017-12-20T04:14:12.373Z,32.75
2017-12-20T04:15:20.764Z,35.05
2017-12-20T04:16:28.214Z,35.75
2017-12-20T04:17:35.725Z,35.78
2017-12-20T04:18:42.660Z,37.90
2017-12-20T04:19:49.609Z,36.42
2017-12-20T04:21:00.771Z,31.85
2017-12-20T04:22:07.097Z,38.72
2017-12-20T04:23:13.270Z,31.25
2017-12-20T04:24:19.525Z,33.83
2017-12-20T04:25:25.916Z,37.00
2017-12-20T04:26:32.233Z,34.45
2017-12-20T04:27:38.486Z,34.75
2017-12-20T04:28:44.874Z,33.00
2017-12-20T04:29:51.803Z,33.83
2017-12-20T04:30:58.075Z,32.58
2017-12-20T04:32:03.942Z,31.95
2017-12-20T04:33:10.732Z,33.05
2017-12-20T04:34:17.885Z,26.98
2017-12-20T04:35:24.954Z,37.20
2017-12-20T04:36:32.377Z,31.65
2017-12-20T04:37:39.622Z,35.97
2017-12-20T04:38:47.055Z,31.67
2017-12-20T04:39:53.553Z,30.65
2017-12-20T04:41:00.385Z,35.08
2017-12-20T04:42:07.197Z,34.67
2017-12-20T04:43:13.689Z,31.42
2017-12-20T04:44:20.620Z,34.90
2017-12-20T04:45:27.243Z,34.90
2017-12-20T04:46:33.670Z,31.12
2017-12-20T04:47:39.904Z,34.10
2017-12-20T04:48:46.351Z,33.08
2017-12-20T04:49:53.171Z,30.80
2017-12-20T04:51:00.532Z,32.70
2017-12-20T04:52:08.320Z,31.87
2017-12-20T04:53:14.739Z,33.03
2017-12-20T04:54:22.457Z,33.47
2017-12-20T04:55:30.792Z,32.53
2017-12-20T04:56:38.233Z,33.88
2017-12-20T04:57:44.830Z,34.03
2017-12-20T04:58:51.027Z,36.10
2017-12-20T04:59:57.802Z,28.08
2017-12-20T05:01:05.181Z,29.90
2017-12-20T05:02:12.512Z,32.83
2017-12-20T05:03:20.066Z,31.17
2017-12-20T05:04:26.913Z,30.48
2017-12-20T05:05:35.605Z,35.20
2017-12-20T05:06:42.458Z,34.75
2017-12-20T05:07:49.330Z,36.25
2017-12-20T05:08:57.320Z,33.05
2017-12-20T05:10:04.258Z,33.80
2017-12-20T05:11:11.115Z,36.50
2017-12-20T05:12:17.821Z,35.00
2017-12-20T05:13:24.714Z,30.30
2017-12-20T05:14:32.112Z,33.67
2017-12-20T05:15:39.177Z,29.55
2017-12-20T05:16:47.496Z,32.80
2017-12-20T05:17:55.271Z,33.95
2017-12-20T05:19:02.287Z,34.67
2017-12-20T05:20:09.363Z,32.25
2017-12-20T05:21:17.192Z,32.03
2017-12-20T05:22:24.517Z,30.83
2017-12-20T05:23:31.102Z,34.78
2017-12-20T05:24:38.500Z,32.30
2017-12-20T05:25:45.926Z,30.40
2017-12-20T05:26:52.626Z,33.88
2017-12-20T05:27:59.435Z,28.98
2017-12-20T05:29:07.668Z,32.40
2017-12-20T05:30:14.588Z,32.35
2017-12-20T05:31:21.561Z,33.58
2017-12-20T05:32:28.295Z,28.77
2017-12-20T05:33:35.576Z,26.77
2017-12-20T05:34:43.411Z,27.98
2017-12-20T05:35:50.954Z,34.00
2017-12-20T05:36:59.643Z,27.27
2017-12-20T05:38:06.338Z,27.37
2017-12-20T05:39:13.580Z,30.48
2017-12-20T05:40:20.231Z,29.20
2017-12-20T05:41:27.112Z,33.70
2017-12-20T05:42:35.399Z,29.30
2017-12-20T05:43:41.919Z,28.02
2017-12-20T05:44:48.645Z,30.55
2017-12-20T05:45:56.563Z,28.85
2017-12-20T05:47:03.770Z,31.25
2017-12-20T05:48:11.148Z,24.80
2017-12-20T05:49:19.174Z,26.98
2017-12-20T05:50:32.694Z,28.55
2017-12-20T05:51:39.430Z,32.97
2017-12-20T05:52:48.677Z,28.38
2017-12-20T05:53:55.547Z,28.02
2017-12-20T05:55:03.140Z,28.05
2017-12-20T05:56:10.695Z,30.12
2017-12-20T05:57:18.178Z,27.65
2017-12-20T05:58:26.229Z,32.25
2017-12-20T05:59:34.334Z,28.62
2017-12-20T06:00:41.845Z,27.00
2017-12-20T06:01:51.995Z,25.37
2017-12-20T06:02:59.186Z,31.45
2017-12-20T06:04:06.521Z,26.98
2017-12-20T06:05:14.901Z,28.77
2017-12-20T06:06:22.902Z,27.13
2017-12-20T06:07:30.401Z,28.55
2017-12-20T06:08:37.676Z,27.87
2017-12-20T06:09:44.748Z,33.63
2017-12-20T06:10:52.887Z,30.02
2017-12-20T06:12:00.288Z,30.80
2017-12-20T06:13:08.830Z,29.12
2017-12-20T06:14:16.976Z,32.13
2017-12-20T06:15:25.314Z,29.37
2017-12-20T06:16:33.267Z,31.62
2017-12-20T06:17:40.713Z,28.08
2017-12-20T06:18:50.824Z,26.60
2017-12-20T06:19:57.731Z,31.85
2017-12-20T06:21:04.019Z,33.17
2017-12-20T06:22:10.303Z,28.25
2017-12-20T06:23:16.551Z,31.25
2017-12-20T06:24:24.551Z,27.83
2017-12-20T06:25:31.891Z,27.65
2017-12-20T06:26:38.627Z,32.03
2017-12-20T06:27:45.454Z,28.90
2017-12-20T06:28:53.195Z,26.17
2017-12-20T06:30:00.975Z,31.40
2017-12-20T06:31:08.349Z,28.27
2017-12-20T06:32:18.379Z,28.80
2017-12-20T06:33:25.589Z,27.85
2017-12-20T06:34:32.743Z,28.08
2017-12-20T06:35:40.779Z,26.30
2017-12-20T06:36:48.235Z,30.62
2017-12-20T06:37:56.568Z,27.27
2017-12-20T06:39:07.424Z,28.42
2017-12-20T06:40:14.491Z,23.65
2017-12-20T06:41:21.242Z,23.70
2017-12-20T06:42:28.258Z,27.55
2017-12-20T06:43:35.681Z,23.65
2017-12-20T06:44:42.990Z,32.25
2017-12-20T06:45:51.199Z,26.15
2017-12-20T06:46:57.424Z,29.85
2017-12-20T06:48:04.120Z,32.13
2017-12-20T06:49:10.950Z,34.00
2017-12-20T06:50:19.350Z,41.28
2017-12-20T06:51:26.485Z,40.95
2017-12-20T06:52:33.627Z,41.97
2017-12-20T06:53:40.810Z,34.92
2017-12-20T06:54:48.609Z,36.55
2017-12-20T06:55:55.448Z,32.47
2017-12-20T06:57:02.653Z,30.77
2017-12-20T06:58:10.058Z,36.75
2017-12-20T06:59:17.367Z,34.03
2017-12-20T07:00:25.668Z,32.05
2017-12-20T07:01:34.551Z,33.92
2017-12-20T07:02:42.359Z,34.72
2017-12-20T07:03:49.328Z,30.55
2017-12-20T07:04:56.660Z,32.35
2017-12-20T07:06:08.320Z,29.50
2017-12-20T07:07:15.307Z,28.75
2017-12-20T07:08:27.196Z,30.30
2017-12-20T07:09:33.418Z,31.42
2017-12-20T07:10:39.684Z,31.50
2017-12-20T07:11:45.888Z,30.20
2017-12-20T07:12:52.132Z,32.78
2017-12-20T07:13:58.388Z,31.45
2017-12-20T07:15:04.311Z,29.37
2017-12-20T07:16:10.528Z,30.88
2017-12-20T07:17:16.742Z,30.05
2017-12-20T07:18:22.950Z,29.23
2017-12-20T07:19:29.140Z,29.00
2017-12-20T07:20:35.408Z,26.50
2017-12-20T07:21:41.647Z,26.98
2017-12-20T07:22:47.942Z,27.48
2017-12-20T07:23:54.374Z,26.00
2017-12-20T07:25:00.715Z,29.05
2017-12-20T07:26:06.897Z,29.80
2017-12-20T07:27:13.168Z,26.77
2017-12-20T07:28:22.008Z,29.40
2017-12-20T07:29:28.829Z,23.05
2017-12-20T07:30:36.010Z,27.73
2017-12-20T07:31:43.721Z,27.60
2017-12-20T07:32:51.967Z,28.25
2017-12-20T07:33:59.660Z,24.50
2017-12-20T07:35:07.354Z,28.58
2017-12-20T07:36:16.552Z,26.58
2017-12-20T07:37:24.183Z,26.60
2017-12-20T07:38:31.523Z,24.15
2017-12-20T07:39:38.756Z,27.13
2017-12-20T07:40:46.307Z,25.65
2017-12-20T07:41:53.933Z,23.15
2017-12-20T07:43:02.022Z,26.85
2017-12-20T07:44:09.806Z,25.48
2017-12-20T07:45:17.810Z,29.23
2017-12-20T07:46:25.093Z,26.35
2017-12-20T07:47:32.288Z,22.50
2017-12-20T07:48:39.780Z,29.90
2017-12-20T07:49:46.415Z,33.60
2017-12-20T07:50:53.330Z,31.77
2017-12-20T07:52:00.909Z,36.35
2017-12-20T07:53:09.280Z,26.05
2017-12-20T07:54:16.615Z,26.80
2017-12-20T07:55:24.005Z,23.00
2017-12-20T07:56:31.460Z,24.70
2017-12-20T07:57:38.991Z,25.52
2017-12-20T07:58:46.156Z,27.10
2017-12-20T07:59:53.510Z,23.60
2017-12-20T08:01:01.470Z,26.23
2017-12-20T08:02:09.191Z,25.23
2017-12-20T08:03:17.404Z,23.73
2017-12-20T08:04:24.463Z,25.05
2017-12-20T08:05:32.156Z,26.17
2017-12-20T08:06:39.656Z,26.30
2017-12-20T08:07:46.303Z,24.50
2017-12-20T08:08:52.516Z,29.10
2017-12-20T08:09:58.740Z,28.45
2017-12-20T08:11:05.011Z,27.25
2017-12-20T08:12:11.183Z,30.48
2017-12-20T08:13:17.474Z,30.92
2017-12-20T08:14:23.664Z,24.83
2017-12-20T08:15:30.119Z,28.00
2017-12-20T08:16:40.003Z,26.25
2017-12-20T08:17:48.330Z,23.15
2017-12-20T08:18:55.841Z,23.08
2017-12-20T08:20:03.266Z,29.90
2017-12-20T08:21:10.623Z,27.87
2017-12-20T08:22:18.467Z,30.35
2017-12-20T08:23:26.879Z,31.05
2017-12-20T08:24:34.613Z,28.52
2017-12-20T08:25:41.541Z,30.20
2017-12-20T08:26:48.191Z,26.15
2017-12-20T08:27:55.902Z,27.67
2017-12-20T08:29:03.186Z,26.12
2017-12-20T08:30:10.790Z,31.85
2017-12-20T08:31:18.301Z,37.30
2017-12-20T08:32:26.837Z,38.17
2017-12-20T08:33:34.222Z,35.85
2017-12-20T08:34:42.831Z,43.53
2017-12-20T08:35:49.681Z,32.33
2017-12-20T08:36:56.853Z,46.65
2017-12-20T08:38:04.356Z,38.45
2017-12-20T08:39:11.849Z,32.47
2017-12-20T08:40:20.838Z,37.63
2017-12-20T08:41:28.044Z,37.72
2017-12-20T08:42:35.158Z,34.97
2017-12-20T08:43:43.068Z,27.70
2017-12-20T08:44:50.617Z,31.73
2017-12-20T08:45:58.268Z,30.40
2017-12-20T08:47:07.226Z,29.27
2017-12-20T08:48:15.342Z,30.30
2017-12-20T08:49:22.938Z,30.83
2017-12-20T08:50:30.154Z,30.10
2017-12-20T08:51:37.696Z,29.05
2017-12-20T08:52:44.919Z,33.00
2017-12-20T08:53:52.088Z,31.48
2017-12-20T08:54:58.683Z,31.85
2017-12-20T08:56:05.491Z,37.17
2017-12-20T08:57:12.678Z,33.92
2017-12-20T08:58:19.497Z,38.00
2017-12-20T08:59:26.073Z,35.00
2017-12-20T09:00:32.388Z,44.63
2017-12-20T09:01:40.068Z,32.67
2017-12-20T09:02:47.931Z,32.92
2017-12-20T09:03:54.546Z,40.50
2017-12-20T09:05:00.753Z,40.03
2017-12-20T09:06:08.503Z,38.83
2017-12-20T09:07:15.419Z,41.37
2017-12-20T09:08:22.161Z,38.25
2017-12-20T09:09:28.427Z,35.85
2017-12-20T09:10:35.434Z,41.85
2017-12-20T09:11:42.720Z,39.08
2017-12-20T09:12:50.560Z,38.00
2017-12-20T09:13:58.414Z,37.03
2017-12-20T09:15:06.051Z,39.30
2017-12-20T09:16:13.006Z,36.13
2017-12-20T09:17:20.241Z,35.38
2017-12-20T09:18:27.458Z,35.17
2017-12-20T09:19:34.879Z,36.42
2017-12-20T09:20:43.423Z,32.15
2017-12-20T09:21:50.984Z,32.03
2017-12-20T09:22:58.409Z,36.15
2017-12-20T09:24:06.214Z,33.58
2017-12-20T09:25:13.594Z,36.15
2017-12-20T09:26:22.209Z,38.13
2017-12-20T09:27:29.519Z,43.67
2017-12-20T09:28:38.805Z,33.67
2017-12-20T09:29:46.104Z,38.03
2017-12-20T09:30:53.604Z,39.13
2017-12-20T09:32:00.947Z,36.80
2017-12-20T09:33:07.909Z,36.88
2017-12-20T09:34:15.404Z,40.33
2017-12-20T09:35:22.300Z,39.30
2017-12-20T09:36:28.553Z,36.45
2017-12-20T09:37:34.859Z,36.65
2017-12-20T09:38:41.292Z,38.47
2017-12-20T09:39:47.554Z,41.70
2017-12-20T09:40:53.814Z,40.15
2017-12-20T09:42:00.052Z,36.33
2017-12-20T09:43:06.311Z,41.17
2017-12-20T09:44:12.605Z,42.28
2017-12-20T09:45:18.862Z,40.67
2017-12-20T09:46:25.082Z,36.25
2017-12-20T09:47:31.404Z,38.00
2017-12-20T09:48:37.695Z,36.50
2017-12-20T09:49:43.924Z,40.53
2017-12-20T09:50:50.217Z,41.78
2017-12-20T09:51:56.478Z,37.10
2017-12-20T09:53:04.601Z,36.40
2017-12-20T09:54:20.100Z,35.50
2017-12-20T09:55:31.097Z,42.03
2017-12-20T09:56:37.385Z,42.60
2017-12-20T09:57:43.666Z,41.00
2017-12-20T09:58:49.977Z,34.47
2017-12-20T09:59:56.224Z,39.38
2017-12-20T10:01:02.537Z,39.97
2017-12-20T10:02:09.938Z,37.40
2017-12-20T10:03:17.108Z,40.50
2017-12-20T10:04:23.792Z,37.75
2017-12-20T10:05:29.696Z,34.58
2017-12-20T10:06:35.933Z,40.03
2017-12-20T10:07:42.147Z,37.63
2017-12-20T10:08:47.703Z,39.13
2017-12-20T10:09:53.900Z,42.38
2017-12-20T10:10:59.861Z,40.28
2017-12-20T10:12:05.705Z,36.35
2017-12-20T10:13:11.954Z,39.88
2017-12-20T10:14:25.774Z,39.13
2017-12-20T10:15:36.742Z,35.92
2017-12-20T10:16:56.658Z,37.58
2017-12-20T10:18:04.477Z,36.13
2017-12-20T10:19:10.718Z,38.67
2017-12-20T10:20:16.923Z,35.38
2017-12-20T10:21:25.161Z,35.83
2017-12-20T10:22:31.387Z,36.85
2017-12-20T10:23:37.598Z,33.17
2017-12-20T10:24:43.847Z,32.30
2017-12-20T10:25:49.741Z,34.90
2017-12-20T10:26:55.705Z,34.13
2017-12-20T10:28:01.935Z,28.20
2017-12-20T10:29:07.762Z,25.95
2017-12-20T10:30:13.990Z,30.92
2017-12-20T10:31:20.283Z,28.25
2017-12-20T10:32:26.128Z,27.95
2017-12-20T10:33:32.342Z,29.15
2017-12-20T10:34:38.516Z,27.10
2017-12-20T10:35:44.787Z,28.65
2017-12-20T10:36:50.644Z,23.67
2017-12-20T10:37:56.530Z,26.75
2017-12-20T10:39:02.739Z,28.73
2017-12-20T10:40:08.960Z,29.77
2017-12-20T10:41:15.216Z,28.65
2017-12-20T10:42:21.482Z,25.58
2017-12-20T10:43:27.362Z,28.35
2017-12-20T10:44:33.255Z,27.30
2017-12-20T10:45:38.799Z,28.30
2017-12-20T10:46:45.219Z,28.40
2017-12-20T10:47:51.074Z,28.42
2017-12-20T10:48:56.963Z,27.10
2017-12-20T10:50:02.907Z,26.48
2017-12-20T10:51:09.164Z,24.92
2017-12-20T10:52:15.422Z,25.58
2017-12-20T10:53:21.647Z,25.17
2017-12-20T10:54:27.896Z,25.33
2017-12-20T10:55:33.711Z,24.48
2017-12-20T10:56:39.693Z,28.83
2017-12-20T10:57:45.898Z,24.85
2017-12-20T10:58:51.835Z,24.77
2017-12-20T10:59:58.092Z,24.90
2017-12-20T11:01:04.017Z,25.15
2017-12-20T11:02:09.921Z,27.30
2017-12-20T11:03:16.178Z,21.95
2017-12-20T11:04:22.446Z,26.70
2017-12-20T11:05:28.674Z,25.98
2017-12-20T11:06:34.625Z,26.90
2017-12-20T11:07:40.944Z,24.33
2017-12-20T11:08:47.153Z,26.27
2017-12-20T11:09:53.052Z,26.85
2017-12-20T11:10:59.396Z,26.17
2017-12-20T11:12:05.373Z,24.92
2017-12-20T11:13:11.615Z,26.80
2017-12-20T11:14:18.230Z,27.10
2017-12-20T11:15:24.467Z,25.48
2017-12-20T11:16:30.726Z,27.73
2017-12-20T11:17:36.961Z,27.70
2017-12-20T11:18:43.224Z,26.62
2017-12-20T11:19:49.785Z,22.65
2017-12-20T11:20:55.795Z,30.88
2017-12-20T11:22:01.316Z,26.10
2017-12-20T11:23:06.906Z,29.60
2017-12-20T11:24:12.826Z,24.55
2017-12-20T11:25:19.023Z,28.83
2017-12-20T11:26:25.236Z,27.83
2017-12-20T11:27:31.494Z,28.75
2017-12-20T11:28:37.670Z,27.73
2017-12-20T11:29:43.879Z,31.77
2017-12-20T11:30:49.255Z,27.67
2017-12-20T11:31:54.817Z,27.50
2017-12-20T11:33:00.723Z,28.87
2017-12-20T11:34:09.512Z,26.80
2017-12-20T11:35:15.695Z,25.48
2017-12-20T11:36:21.255Z,25.67
2017-12-20T11:37:27.176Z,29.02
2017-12-20T11:38:33.378Z,28.10
2017-12-20T11:39:39.587Z,29.75
2017-12-20T11:40:45.873Z,26.67
2017-12-20T11:41:52.129Z,26.23
2017-12-20T11:42:58.337Z,30.45
2017-12-20T11:44:04.545Z,26.55
2017-12-20T11:45:10.869Z,28.10
2017-12-20T11:46:17.319Z,29.60
2017-12-20T11:47:23.558Z,29.02
2017-12-20T11:48:29.836Z,29.33
2017-12-20T11:49:36.045Z,29.40
2017-12-20T11:50:42.296Z,28.40
2017-12-20T11:51:48.482Z,28.50
2017-12-20T11:52:54.715Z,27.87
2017-12-20T11:54:00.874Z,25.83
2017-12-20T11:55:06.802Z,26.62
2017-12-20T11:56:13.009Z,25.20
2017-12-20T11:57:19.326Z,26.10
2017-12-20T11:58:25.491Z,27.62
2017-12-20T11:59:31.329Z,27.35
2017-12-20T12:00:36.859Z,24.98
2017-12-20T12:01:42.394Z,27.40
2017-12-20T12:02:48.740Z,26.92
2017-12-20T12:03:54.669Z,24.33
2017-12-20T12:05:00.950Z,27.73
2017-12-20T12:06:07.258Z,25.67
2017-12-20T12:07:13.434Z,25.45
2017-12-20T12:08:19.693Z,24.02
2017-12-20T12:09:25.891Z,26.25
2017-12-20T12:10:32.157Z,24.40
2017-12-20T12:11:38.154Z,26.42
2017-12-20T12:12:44.434Z,25.88
2017-12-20T12:13:50.644Z,25.33
2017-12-20T12:14:56.925Z,24.50
2017-12-20T12:16:02.787Z,24.80
2017-12-20T12:17:08.981Z,22.60
2017-12-20T12:18:15.194Z,25.05
2017-12-20T12:19:21.444Z,24.55
2017-12-20T12:20:28.571Z,25.50
2017-12-20T12:21:34.222Z,26.20
2017-12-20T12:22:40.533Z,24.40
2017-12-20T12:23:46.727Z,24.27
2017-12-20T12:24:53.000Z,26.73
2017-12-20T12:25:58.570Z,26.50
2017-12-20T12:27:04.136Z,23.48
2017-12-20T12:28:10.478Z,25.48
2017-12-20T12:29:16.424Z,24.92
2017-12-20T12:30:23.221Z,24.58
2017-12-20T12:31:29.457Z,25.05
2017-12-20T12:32:35.740Z,24.55
2017-12-20T12:33:41.726Z,24.33
2017-12-20T12:34:48.013Z,26.65
2017-12-20T12:35:55.137Z,26.30
2017-12-20T12:37:01.357Z,24.85
2017-12-20T12:38:07.633Z,24.40
2017-12-20T12:39:14.491Z,25.75
2017-12-20T12:40:21.242Z,21.58
2017-12-20T12:41:27.161Z,28.77
2017-12-20T12:42:33.060Z,24.90
2017-12-20T12:43:39.349Z,24.23
2017-12-20T12:44:45.618Z,26.15
2017-12-20T12:45:51.648Z,27.50
2017-12-20T12:47:03.716Z,22.83
2017-12-20T12:48:09.623Z,24.70
2017-12-20T12:49:15.592Z,25.90
2017-12-20T12:50:22.236Z,24.20
2017-12-20T12:51:28.246Z,25.10
2017-12-20T12:52:34.166Z,22.42
2017-12-20T12:53:40.439Z,20.25
2017-12-20T12:54:46.721Z,23.58
2017-12-20T12:55:53.017Z,21.45
2017-12-20T12:57:00.026Z,23.20
2017-12-20T12:58:05.930Z,20.83
2017-12-20T12:59:12.123Z,23.20
2017-12-20T13:00:17.645Z,20.65
2017-12-20T13:01:23.890Z,23.15
2017-12-20T13:02:30.131Z,24.95
2017-12-20T13:03:36.502Z,22.08
2017-12-20T13:04:42.834Z,21.45
2017-12-20T13:05:49.154Z,22.52
2017-12-20T13:06:55.448Z,23.42
2017-12-20T13:08:01.744Z,22.50
2017-12-20T13:09:09.039Z,20.33
2017-12-20T13:10:15.321Z,20.35
2017-12-20T13:11:21.698Z,20.92
2017-12-20T13:12:27.746Z,20.70
2017-12-20T13:13:33.999Z,20.58
2017-12-20T13:14:40.274Z,19.30
2017-12-20T13:15:46.179Z,18.55
2017-12-20T13:16:52.817Z,19.10
2017-12-20T13:17:59.065Z,19.83
2017-12-20T13:19:05.303Z,18.50
2017-12-20T13:20:11.562Z,18.20
2017-12-20T13:21:17.847Z,19.98
2017-12-20T13:22:24.136Z,18.42
2017-12-20T13:23:30.358Z,18.05
2017-12-20T13:24:36.668Z,17.83
2017-12-20T13:25:43.152Z,16.83
2017-12-20T13:26:49.383Z,17.95
2017-12-20T13:27:55.704Z,18.48
2017-12-20T13:29:02.190Z,17.12
2017-12-20T13:30:08.537Z,17.62
2017-12-20T13:31:17.892Z,17.42
2017-12-20T13:32:24.177Z,17.92
2017-12-20T13:33:33.363Z,18.02
2017-12-20T13:34:39.684Z,18.33
2017-12-20T13:35:45.945Z,16.70
2017-12-20T13:36:51.893Z,17.75
2017-12-20T13:37:58.282Z,17.58
2017-12-20T13:39:03.916Z,20.05
2017-12-20T13:40:10.220Z,18.80
2017-12-20T13:41:16.484Z,18.23
2017-12-20T13:42:23.593Z,19.02
2017-12-20T13:43:29.846Z,18.80
2017-12-20T13:44:36.187Z,17.48
2017-12-20T13:45:42.524Z,18.52
2017-12-20T13:46:48.115Z,20.12
2017-12-20T13:47:54.351Z,18.70
2017-12-20T13:49:00.652Z,18.17
2017-12-20T13:50:06.943Z,18.00
2017-12-20T13:51:12.484Z,18.30
2017-12-20T13:52:18.762Z,19.00
2017-12-20T13:53:25.045Z,19.25
2017-12-20T13:54:30.964Z,18.98
2017-12-20T13:55:37.193Z,17.98
2017-12-20T13:56:43.438Z,18.30
2017-12-20T13:57:49.723Z,16.90
2017-12-20T13:58:56.015Z,19.02
2017-12-20T14:00:02.075Z,19.60
2017-12-20T14:01:07.360Z,17.35
2017-12-20T14:02:12.928Z,18.17
2017-12-20T14:03:18.842Z,16.12
2017-12-20T14:04:24.791Z,19.05
2017-12-20T14:05:30.721Z,18.05
2017-12-20T14:06:36.928Z,16.95
2017-12-20T14:07:43.166Z,17.62
2017-12-20T14:08:49.062Z,17.33
2017-12-20T14:09:55.338Z,17.00
2017-12-20T14:11:01.583Z,16.50
2017-12-20T14:12:07.763Z,16.90
2017-12-20T14:13:13.958Z,17.73
2017-12-20T14:14:19.802Z,16.80
2017-12-20T14:15:26.046Z,17.40
2017-12-20T14:16:32.291Z,17.05
2017-12-20T14:17:38.573Z,15.77
2017-12-20T14:18:45.697Z,16.50
2017-12-20T14:19:52.110Z,16.80